Flight Track Log - Related Links

Times and Time Zones

All times are in EDT time to prevent confusion due to time zone crossing. See the SWR52 flight status page for this flight to view local times or setup timezone preferences in your user account.

Time Position Orientation Groundspeed Altitude Reporting Facility
EDT Latitude Longitude Course Direction KTS MPH feet Rate Location/Type
Sat 12:11:24 PM 47.4277 8.5852 102° East 181 208 3,400  Level FlightAware ADS-B
Sat 12:11:41 PM 47.4331 8.6028 44° Northeast 172 198 3,800 1,297 Climbing FlightAware ADS-B
Sat 12:12:01 PM 47.4464 8.6080 345° North 169 194 4,200 1,091 Climbing FlightAware ADS-B
Sat 12:12:25 PM 47.4590 8.5875 282° West 177 204 4,600 818 Climbing FlightAware ADS-B
Sat 12:12:45 PM 47.4573 8.5645 257° West 187 215 4,800 615 Climbing FlightAware ADS-B
Sat 12:13:04 PM 47.4529 8.5387 258° West 204 235 5,000 724 Climbing FlightAware ADS-B
Sat 12:13:43 PM 47.4532 8.4803 273° West 250 288 5,500 1,259 Climbing FlightAware ADS-B
Sat 12:14:25 PM 47.4536 8.4007 271° West 276 318 6,700 1,935 Climbing FlightAware ADS-B
Sat 12:14:45 PM 47.4540 8.3607 270° West 279 321 7,500 2,400 Climbing FlightAware ADS-B
Sat 12:15:05 PM 47.4540 8.3225 270° West 280 322 8,300 2,400 Climbing FlightAware ADS-B
Sat 12:15:25 PM 47.4554 8.2845 275° West 283 326 9,100 2,368 Climbing FlightAware ADS-B
Sat 12:15:43 PM 47.4570 8.2502 273° West 287 330 9,800 1,745 Climbing FlightAware ADS-B
Sat 12:16:20 PM 47.4589 8.1764 272° West 309 356 10,700 1,463 Climbing FlightAware ADS-B
Sat 12:17:05 PM 47.4606 8.0898 272° West 333 383 11,800 1,946 Climbing FlightAware ADS-B
Sat 12:17:34 PM 47.4581 8.0111 259° West 338 389 13,100 2,154 Climbing FlightAware ADS-B
Sat 12:18:23 PM 47.4398 7.9040 256° West 345 397 14,600 794 Climbing FlightAware ADS-B
Sat 12:46:25 PM 48.3708 3.0428 276° West 454 522 36,000 710 Climbing FlightAware ADS-B
Sat 12:48:31 PM 48.3766 2.6428 271° West 458 527 36,000  Level FlightAware ADS-B
Sat 12:49:10 PM 48.3773 2.5763 271° West 456 525 36,000  Level FlightAware ADS-B
Sat 12:50:32 PM 48.3793 2.3657 271° West 454 522 36,000  Level FlightAware ADS-B
Sat 12:51:31 PM 48.3814 2.0791 271° West 452 520 36,000  Level FlightAware ADS-B
Sat 12:52:27 PM 48.3816 2.0409 270° West 451 519 36,000  Level FlightAware ADS-B
Sat 12:53:36 PM 48.3828 1.7256 270° West 467 537 36,000  Level FlightAware UK
Sat 12:54:42 PM 48.3830 1.5206 270° West 448 516 36,000  Level FlightAware UK
Sat 12:55:24 PM 48.3829 1.3904 270° West 448 516 36,000  Level FlightAware UK
Sat 12:55:43 PM 48.3835 1.4353 270° West 448 516 36,000  Level FlightAware ADS-B (EGLF / FAB)
Sat 12:56:19 PM 48.3834 1.2242 270° West 448 516 36,000  Level FlightAware ADS-B (EGLF / FAB)
Sat 12:56:52 PM 48.3833 1.1682 270° West 448 516 36,000  Level FlightAware ADS-B
Sat 12:57:44 PM 48.3827 0.9613 270° West 448 516 36,000  Level FlightAware ADS-B (KSCH)
Sat 12:58:27 PM 48.3822 0.8262 270° West 446 513 36,000  Level FlightAware ADS-B (LFBU / ANG)
Sat 12:59:05 PM 48.3811 0.7032 270° West 444 511 36,000  Level FlightAware UK
Sat 12:59:10 PM 48.3817 0.7478 270° West 445 512 36,000  Level FlightAware ADS-B (EGLF / FAB)
Sat 12:59:47 PM 48.3802 0.5741 270° West 442 509 36,000  Level FlightAware UK
Sat 12:59:55 PM 48.3812 0.6543 269° West 443 510 36,000  Level FlightAware ADS-B (EGLF / FAB)
Sat 01:00:59 PM 48.3785 0.3543 269° West 440 506 36,000  Level FlightAware UK
Sat 01:01:19 PM 48.3788 0.3403 269° West 438 504 36,000  Level FlightAware ADS-B (EGLF / FAB)
Sat 01:01:51 PM 48.3782 0.2747 269° West 439 505 36,000  Level FlightAware ADS-B (EGJJ / JER)
Sat 01:02:23 PM 48.3760 0.0993 269° West 440 506 36,000  Level FlightAware UK
Sat 01:02:30 PM 48.3763 0.0904 269° West 439 505 36,000  Level FlightAware ADS-B (EGJJ / JER)
Sat 01:03:17 PM 48.3746 -0.0600 269° West 440 506 36,000  Level FlightAware ADS-B (EGJJ / JER)
Sat 01:03:47 PM 48.3734 -0.1548 269° West 440 506 36,000  Level FlightAware UK
Sat 01:04:11 PM 48.3727 -0.1986 269° West 441 507 36,000  Level FlightAware ADS-B (EGJJ / JER)
Sat 01:04:47 PM 48.3706 -0.3380 269° West 442 509 36,000  Level FlightAware UK
Sat 01:05:05 PM 48.3699 -0.3907 270° West 441 507 36,000  Level FlightAware ADS-B (KSCH)
Sat 01:05:45 PM 48.3680 -0.5086 269° West 441 507 36,000  Level FlightAware ADS-B (EGLF / FAB)
Sat 01:06:24 PM 48.3661 -0.6227 269° West 440 506 36,000  Level FlightAware ADS-B
Sat 01:07:01 PM 48.3639 -0.7441 268° West 440 506 36,000  Level FlightAware ADS-B
Sat 01:07:40 PM 48.3616 -0.8676 268° West 440 506 36,000  Level FlightAware UK
Sat 01:07:42 PM 48.3616 -0.8662 268° West 440 506 36,000  Level FlightAware ADS-B (EGLF / FAB)
Sat 01:08:21 PM 48.3595 -0.9710 268° West 440 506 36,000  Level FlightAware ADS-B (EGJJ / JER)
Sat 01:08:52 PM 48.3572 -1.0799 269° West 439 505 36,000  Level FlightAware ADS-B (KSCH)
Sat 01:09:25 PM 48.3551 -1.1797 268° West 439 505 36,000  Level FlightAware ADS-B (EGLF / FAB)
Sat 01:09:55 PM 48.3529 -1.2714 268° West 438 504 36,000  Level FlightAware ADS-B (EGJJ / JER)
Sat 01:10:25 PM 48.3517 -1.3290 268° West 438 504 36,000  Level FlightAware ADS-B (EGLF / FAB)
Sat 01:10:58 PM 48.3491 -1.4679 268° West 438 504 36,000  Level FlightAware UK
Sat 01:11:22 PM 48.3481 -1.5361 269° West 437 503 36,000  Level FlightAware ADS-B (EGJJ / JER)
Sat 01:12:02 PM 48.3461 -1.6513 269° West 437 503 36,000  Level FlightAware ADS-B (EGJJ / JER)
Sat 01:12:43 PM 48.3441 -1.7792 269° West 438 504 36,000  Level FlightAware ADS-B (EGJJ / JER)
Sat 01:12:46 PM 48.3440 -1.7943 269° West 438 504 36,000  Level FlightAware UK
Sat 01:13:24 PM 48.3420 -1.9063 269° West 436 502 36,000  Level FlightAware ADS-B (EGJJ / JER)
Sat 01:13:57 PM 48.3404 -2.0116 269° West 436 502 36,000  Level FlightAware UK
Sat 01:13:58 PM 48.3403 -2.0095 270° West 435 501 36,000  Level FlightAware ADS-B (KSCH)
Sat 01:14:04 PM 48.3400 -2.0258 270° West 435 501 36,000  Level FlightAware ADS-B (KSCH)
Sat 01:14:53 PM 48.3375 -2.1737 268° West 433 498 36,000  Level FlightAware ADS-B
Sat 01:15:27 PM 48.3357 -2.2667 268° West 432 497 36,000  Level FlightAware ADS-B (EGJJ / JER)
Sat 01:15:57 PM 48.3337 -2.3657 268° West 429 494 36,000  Level FlightAware ADS-B (EGLF / FAB)
Sat 01:16:39 PM 48.3315 -2.4962 268° West 426 490 36,000  Level FlightAware UK
Sat 01:16:54 PM 48.3309 -2.5336 269° West 425 489 36,000  Level FlightAware ADS-B (EGJJ / JER)
Sat 01:17:34 PM 48.3281 -2.6449 267° West 425 489 36,000  Level FlightAware ADS-B (EGJJ / JER)
Sat 01:18:13 PM 48.3247 -2.7641 268° West 424 488 36,000  Level FlightAware ADS-B (EGJJ / JER)
Sat 01:18:53 PM 48.3217 -2.8697 267° West 424 488 36,000  Level FlightAware ADS-B (EGJJ / JER)
Sat 01:19:27 PM 48.3185 -2.9865 267° West 426 490 36,000  Level FlightAware UK
Sat 01:19:53 PM 48.3181 -2.9920 267° West 426 490 36,000  Level FlightAware ADS-B (EGJJ / JER)
Sat 01:20:53 PM 48.3102 -3.2455 267° West 425 489 36,000  Level FlightAware ADS-B
Sat 01:21:44 PM 48.3057 -3.3829 267° West 425 489 36,000  Level FlightAware ADS-B (EGJJ / JER)
Sat 01:22:45 PM 48.2997 -3.5678 267° West 422 486 36,000  Level FlightAware UK
Sat 01:23:19 PM 48.2962 -3.6599 267° West 422 486 36,000  Level FlightAware ADS-B (EGJJ / JER)
Sat 01:23:49 PM 48.2926 -3.7587 267° West 420 483 36,000  Level FlightAware ADS-B
Sat 01:23:51 PM 48.2929 -3.7601 267° West 420 483 36,000  Level FlightAware UK
Sat 01:24:26 PM 48.2893 -3.8637 267° West 418 481 36,000  Level FlightAware UK
Sat 01:24:32 PM 48.2882 -3.8760 268° West 418 481 36,000  Level FlightAware ADS-B (KSCH)
Sat 01:25:17 PM 48.2833 -4.0042 268° West 415 478 36,000  Level FlightAware ADS-B (KSCH)
Sat 01:25:49 PM 48.2797 -4.0975 268° West 413 475 36,000  Level FlightAware ADS-B (KSCH)
Sat 01:26:21 PM 48.2761 -4.1862 268° West 413 475 36,000  Level FlightAware ADS-B (KSCH)
Sat 01:26:58 PM 48.2717 -4.2930 268° West 413 475 36,000  Level FlightAware ADS-B (KSCH)
Sat 01:27:02 PM 48.2714 -4.3101 268° West 414 476 36,000  Level FlightAware UK
Sat 01:27:32 PM 48.2678 -4.3956 268° West 414 476 36,000  Level FlightAware UK
Sat 01:28:02 PM 48.2640 -4.4815 266° West 416 479 36,000  Level FlightAware UK
Sat 01:28:32 PM 48.2600 -4.5677 266° West 420 483 36,000  Level FlightAware UK
Sat 01:29:02 PM 48.2561 -4.6545 266° West 420 483 36,000  Level FlightAware UK
Sat 01:29:38 PM 48.2513 -4.7587 266° West 422 486 36,000  Level FlightAware UK
Sat 01:30:08 PM 48.2473 -4.8464 266° West 424 488 36,000  Level FlightAware UK
Sat 01:30:38 PM 48.2435 -4.9344 266° West 424 488 36,000  Level FlightAware UK
Sat 01:31:08 PM 48.2393 -5.0225 266° West 424 488 36,000  Level FlightAware UK
Sat 01:31:38 PM 48.2350 -5.1104 266° West 426 490 36,000  Level FlightAware UK
Sat 01:32:08 PM 48.2307 -5.1983 266° West 424 488 36,000  Level FlightAware UK
Sat 01:32:38 PM 48.2265 -5.2862 266° West 424 488 36,000  Level FlightAware UK
Sat 01:33:08 PM 48.2223 -5.3741 266° West 424 488 36,000  Level FlightAware UK
Sat 01:33:38 PM 48.2179 -5.4617 266° West 424 488 36,000  Level FlightAware UK
Sat 01:34:08 PM 48.2134 -5.5493 266° West 424 488 36,000  Level FlightAware UK
Sat 01:34:38 PM 48.2087 -5.6369 265° West 424 488 36,000  Level FlightAware UK
Sat 01:35:08 PM 48.2039 -5.7246 265° West 424 488 36,000  Level FlightAware UK
Sat 01:35:38 PM 48.1991 -5.8122 265° West 426 490 36,000  Level FlightAware UK
Sat 01:36:14 PM 48.1935 -5.9170 265° West 426 490 36,000  Level FlightAware UK
Sat 01:36:44 PM 48.1884 -6.0049 265° West 426 490 36,000  Level FlightAware UK
Sat 01:37:14 PM 48.1835 -6.0931 265° West 428 493 36,000  Level FlightAware UK
Sat 01:37:44 PM 48.1784 -6.1812 265° West 428 493 36,000  Level FlightAware UK
Sat 01:38:14 PM 48.1730 -6.2695 265° West 428 493 36,000  Level FlightAware UK
Sat 01:38:44 PM 48.1678 -6.3577 265° West 428 493 36,000  Level FlightAware UK
Sat 01:39:14 PM 48.1625 -6.4459 265° West 428 493 36,000  Level FlightAware UK
Sat 01:39:44 PM 48.1571 -6.5340 265° West 426 490 36,000  Level FlightAware UK
Sat 01:40:14 PM 48.1517 -6.6220 265° West 426 490 36,000  Level FlightAware UK
Sat 01:40:44 PM 48.1462 -6.7100 265° West 426 490 36,000 200 Level FlightAware UK
Sat 01:41:14 PM 48.1407 -6.7978 265° West 426 490 36,200 500 Climbing FlightAware UK
Sat 01:41:44 PM 48.1351 -6.8857 265° West 426 490 36,500 556 Climbing FlightAware UK
Sat 01:43:02 PM 48.1208 -7.1133 265° West 422 486 37,200 577 Climbing FlightAware UK
Sat 01:44:20 PM 48.1065 -7.3393 265° West 416 479 38,000 348 Climbing FlightAware UK
Sat 01:45:20 PM 48.0962 -7.5120 265° West 414 476 38,000  Level FlightAware UK
Sat 01:46:02 PM 48.0888 -7.6326 265° West 414 476 38,000  Level FlightAware UK
Sat 01:48:02 PM 48.0608 -7.9692 263° West 418 481 38,000  Level FlightAware UK
Sat 01:48:32 PM 48.0540 -8.0541 263° West 416 479 38,000  Level FlightAware UK
Sat 01:50:00 PM 48.0366 -8.2846 264° West  Level FlightAware Approximate
Sat 01:57:00 PM 47.9431 -9.3860 263° West  Level FlightAware Approximate
Sat 01:58:00 PM 47.9286 -9.5423 262° West  Level FlightAware Approximate
Sat 01:59:00 PM 47.9139 -9.6986 262° West  Level FlightAware Approximate
Sat 02:00:00 PM 47.8989 -9.8547 262° West  Level FlightAware Approximate
Sat 02:01:00 PM 47.8838 -10.0107 262° West  Level FlightAware Approximate
Sat 02:02:00 PM 47.8684 -10.1667 262° West  Level FlightAware Approximate
Sat 02:03:00 PM 47.8528 -10.3225 262° West  Level FlightAware Approximate
Sat 02:04:00 PM 47.8370 -10.4783 261° West  Level FlightAware Approximate
Sat 02:05:00 PM 47.8210 -10.6339 261° West  Level FlightAware Approximate
Sat 02:06:00 PM 47.8048 -10.7895 261° West  Level FlightAware Approximate
Sat 02:07:00 PM 47.7883 -10.9450 261° West  Level FlightAware Approximate
Sat 02:08:00 PM 47.7717 -11.1003 261° West  Level FlightAware Approximate
Sat 02:09:00 PM 47.7548 -11.2556 261° West  Level FlightAware Approximate
Sat 02:10:00 PM 47.7378 -11.4108 261° West  Level FlightAware Approximate
Sat 02:11:00 PM 47.7205 -11.5658 261° West  Level FlightAware Approximate
Sat 02:12:00 PM 47.7030 -11.7208 261° West  Level FlightAware Approximate
Sat 02:13:00 PM 47.6854 -11.8757 260° West  Level FlightAware Approximate
Sat 02:14:00 PM 47.6675 -12.0304 260° West  Level FlightAware Approximate
Sat 02:15:00 PM 47.6494 -12.1851 260° West  Level FlightAware Approximate
Sat 02:16:00 PM 47.6311 -12.3396 260° West  Level FlightAware Approximate
Sat 02:17:00 PM 47.6126 -12.4940 260° West  Level FlightAware Approximate
Sat 02:18:00 PM 47.5938 -12.6483 260° West  Level FlightAware Approximate
Sat 02:19:00 PM 47.5749 -12.8026 260° West  Level FlightAware Approximate
Sat 02:20:00 PM 47.5558 -12.9566 260° West  Level FlightAware Approximate
Sat 02:21:00 PM 47.5364 -13.1106 260° West  Level FlightAware Approximate
Sat 02:22:00 PM 47.5169 -13.2645 259° West  Level FlightAware Approximate
Sat 02:23:00 PM 47.4971 -13.4183 259° West  Level FlightAware Approximate
Sat 02:24:00 PM 47.4772 -13.5719 259° West  Level FlightAware Approximate
Sat 02:25:00 PM 47.4570 -13.7254 259° West  Level FlightAware Approximate
Sat 02:26:00 PM 47.4366 -13.8788 259° West  Level FlightAware Approximate
Sat 02:27:00 PM 47.4161 -14.0321 259° West  Level FlightAware Approximate
Sat 02:28:00 PM 47.3953 -14.1853 259° West  Level FlightAware Approximate
Sat 02:29:00 PM 47.3743 -14.3383 259° West  Level FlightAware Approximate
Sat 02:30:00 PM 47.3531 -14.4912 258° West  Level FlightAware Approximate
Sat 02:31:00 PM 47.3317 -14.6440 258° West  Level FlightAware Approximate
Sat 02:32:00 PM 47.3102 -14.7967 258° West  Level FlightAware Approximate
Sat 02:33:00 PM 47.2883 -14.9492 258° West  Level FlightAware Approximate
Sat 02:34:00 PM 47.2664 -15.1016 258° West  Level FlightAware Approximate
Sat 02:35:00 PM 47.2442 -15.2539 258° West  Level FlightAware Approximate
Sat 02:36:00 PM 47.2218 -15.4061 258° West  Level FlightAware Approximate
Sat 02:37:00 PM 47.1992 -15.5581 258° West  Level FlightAware Approximate
Sat 02:38:00 PM 47.1764 -15.7100 258° West  Level FlightAware Approximate
Sat 02:39:00 PM 47.1534 -15.8618 257° West  Level FlightAware Approximate
Sat 02:40:00 PM 47.1302 -16.0134 257° West  Level FlightAware Approximate
Sat 02:41:00 PM 47.1068 -16.1649 257° West  Level FlightAware Approximate
Sat 02:42:00 PM 47.0832 -16.3163 257° West  Level FlightAware Approximate
Sat 02:43:00 PM 47.0594 -16.4676 257° West  Level FlightAware Approximate
Sat 02:44:00 PM 47.0354 -16.6187 257° West  Level FlightAware Approximate
Sat 02:45:00 PM 47.0112 -16.7696 257° West  Level FlightAware Approximate
Sat 02:46:00 PM 46.9868 -16.9205 257° West  Level FlightAware Approximate
Sat 02:47:00 PM 46.9622 -17.0712 257° West  Level FlightAware Approximate
Sat 02:48:00 PM 46.9374 -17.2217 256° West  Level FlightAware Approximate
Sat 02:49:00 PM 46.9124 -17.3721 256° West  Level FlightAware Approximate
Sat 02:50:00 PM 46.8872 -17.5224 256° West  Level FlightAware Approximate
Sat 02:51:00 PM 46.8618 -17.6725 256° West  Level FlightAware Approximate
Sat 02:52:00 PM 46.8362 -17.8225 256° West  Level FlightAware Approximate
Sat 02:53:00 PM 46.8105 -17.9724 256° West  Level FlightAware Approximate
Sat 02:54:00 PM 46.7845 -18.1221 256° West  Level FlightAware Approximate
Sat 02:55:00 PM 46.7583 -18.2716 256° West  Level FlightAware Approximate
Sat 02:56:00 PM 46.7320 -18.4210 256° West  Level FlightAware Approximate
Sat 02:57:00 PM 46.7054 -18.5703 256° West  Level FlightAware Approximate
Sat 02:58:00 PM 46.6787 -18.7194 255° West  Level FlightAware Approximate
Sat 02:59:00 PM 46.6517 -18.8684 255° West  Level FlightAware Approximate
Sat 03:00:00 PM 46.6246 -19.0172 255° West  Level FlightAware Approximate
Sat 03:01:00 PM 46.5973 -19.1659 255° West  Level FlightAware Approximate
Sat 03:02:00 PM 46.5698 -19.3144 255° West  Level FlightAware Approximate
Sat 03:03:00 PM 46.5420 -19.4628 255° West  Level FlightAware Approximate
Sat 03:04:00 PM 46.5141 -19.6110 255° West  Level FlightAware Approximate
Sat 03:05:00 PM 46.4860 -19.7591 255° West  Level FlightAware Approximate
Sat 03:06:00 PM 46.4578 -19.9070 255° West  Level FlightAware Approximate
Sat 03:07:00 PM 46.4293 -20.0547 254° West  Level FlightAware Approximate
Sat 03:08:00 PM 46.4006 -20.2023 254° West  Level FlightAware Approximate
Sat 03:09:00 PM 46.3718 -20.3498 254° West  Level FlightAware Approximate
Sat 03:10:00 PM 46.3427 -20.4970 254° West  Level FlightAware Approximate
Sat 03:11:00 PM 46.3135 -20.6442 254° West  Level FlightAware Approximate
Sat 03:12:00 PM 46.2841 -20.7912 254° West  Level FlightAware Approximate
Sat 03:13:00 PM 46.2545 -20.9380 254° West  Level FlightAware Approximate
Sat 03:14:00 PM 46.2247 -21.0846 254° West  Level FlightAware Approximate
Sat 03:15:00 PM 46.1947 -21.2311 254° West  Level FlightAware Approximate
Sat 03:16:00 PM 46.1645 -21.3775 253° West  Level FlightAware Approximate
Sat 03:17:00 PM 46.1342 -21.5236 253° West  Level FlightAware Approximate
Sat 03:18:00 PM 46.1036 -21.6697 253° West  Level FlightAware Approximate
Sat 03:19:00 PM 46.0729 -21.8155 253° West  Level FlightAware Approximate
Sat 03:20:00 PM 46.0420 -21.9612 253° West  Level FlightAware Approximate
Sat 03:21:00 PM 46.0109 -22.1067 253° West  Level FlightAware Approximate
Sat 03:22:00 PM 45.9796 -22.2521 253° West  Level FlightAware Approximate
Sat 03:23:00 PM 45.9481 -22.3973 253° West  Level FlightAware Approximate
Sat 03:24:00 PM 45.9165 -22.5423 253° West  Level FlightAware Approximate
Sat 03:25:00 PM 45.8846 -22.6872 253° West  Level FlightAware Approximate
Sat 03:26:00 PM 45.8526 -22.8319 252° West  Level FlightAware Approximate
Sat 03:27:00 PM 45.8204 -22.9764 252° West  Level FlightAware Approximate
Sat 03:28:00 PM 45.7880 -23.1208 252° West  Level FlightAware Approximate
Sat 03:29:00 PM 45.7555 -23.2650 252° West  Level FlightAware Approximate
Sat 03:30:00 PM 45.7227 -23.4090 252° West  Level FlightAware Approximate
Sat 03:31:00 PM 45.6898 -23.5529 252° West  Level FlightAware Approximate
Sat 03:32:00 PM 45.6567 -23.6966 252° West  Level FlightAware Approximate
Sat 03:33:00 PM 45.6234 -23.8401 252° West  Level FlightAware Approximate
Sat 03:34:00 PM 45.5899 -23.9835 252° West  Level FlightAware Approximate
Sat 03:35:00 PM 45.5563 -24.1266 251° West  Level FlightAware Approximate
Sat 03:36:00 PM 45.5224 -24.2696 251° West  Level FlightAware Approximate
Sat 03:37:00 PM 45.4884 -24.4125 251° West  Level FlightAware Approximate
Sat 03:38:00 PM 45.4543 -24.5551 251° West  Level FlightAware Approximate
Sat 03:39:00 PM 45.4199 -24.6976 251° West  Level FlightAware Approximate
Sat 03:40:00 PM 45.3854 -24.8400 251° West  Level FlightAware Approximate
Sat 03:41:00 PM 45.3509 -24.9822 251° West  Level FlightAware Approximate
Sat 03:42:00 PM 45.3164 -25.1244 251° West  Level FlightAware Approximate
Sat 03:43:00 PM 45.2818 -25.2664 251° West  Level FlightAware Approximate
Sat 03:44:00 PM 45.2470 -25.4082 251° West  Level FlightAware Approximate
Sat 03:45:00 PM 45.2121 -25.5499 251° West  Level FlightAware Approximate
Sat 03:46:00 PM 45.1769 -25.6914 251° West  Level FlightAware Approximate
Sat 03:47:00 PM 45.1416 -25.8327 251° West  Level FlightAware Approximate
Sat 03:48:00 PM 45.1061 -25.9739 250° West  Level FlightAware Approximate
Sat 03:49:00 PM 45.0705 -26.1148 250° West  Level FlightAware Approximate
Sat 03:50:00 PM 45.0346 -26.2556 250° West  Level FlightAware Approximate
Sat 03:51:00 PM 44.9986 -26.3962 250° West  Level FlightAware Approximate
Sat 03:52:00 PM 44.9624 -26.5367 250° West  Level FlightAware Approximate
Sat 03:53:00 PM 44.9261 -26.6769 250° West  Level FlightAware Approximate
Sat 03:54:00 PM 44.8896 -26.8170 250° West  Level FlightAware Approximate
Sat 03:55:00 PM 44.8529 -26.9569 250° West  Level FlightAware Approximate
Sat 03:56:00 PM 44.8160 -27.0967 250° West  Level FlightAware Approximate
Sat 03:57:00 PM 44.7790 -27.2362 250° West  Level FlightAware Approximate
Sat 03:58:00 PM 44.7418 -27.3756 249° West  Level FlightAware Approximate
Sat 03:59:00 PM 44.7044 -27.5148 249° West  Level FlightAware Approximate
Sat 04:00:00 PM 44.6669 -27.6538 249° West  Level FlightAware Approximate
Sat 04:01:00 PM 44.6292 -27.7926 249° West  Level FlightAware Approximate
Sat 04:02:00 PM 44.5913 -27.9312 249° West  Level FlightAware Approximate
Sat 04:03:00 PM 44.5532 -28.0697 249° West  Level FlightAware Approximate
Sat 04:04:00 PM 44.5150 -28.2080 249° West  Level FlightAware Approximate
Sat 04:05:00 PM 44.4766 -28.3461 249° West  Level FlightAware Approximate
Sat 04:06:00 PM 44.4381 -28.4840 249° West  Level FlightAware Approximate
Sat 04:07:00 PM 44.3994 -28.6218 249° West  Level FlightAware Approximate
Sat 04:08:00 PM 44.3605 -28.7593 248° West  Level FlightAware Approximate
Sat 04:09:00 PM 44.3215 -28.8967 248° West  Level FlightAware Approximate
Sat 04:10:00 PM 44.2823 -29.0339 248° West  Level FlightAware Approximate
Sat 04:11:00 PM 44.2429 -29.1709 248° West  Level FlightAware Approximate
Sat 04:12:00 PM 44.2034 -29.3077 248° West  Level FlightAware Approximate
Sat 04:13:00 PM 44.1637 -29.4444 248° West  Level FlightAware Approximate
Sat 04:14:00 PM 44.1238 -29.5808 248° West  Level FlightAware Approximate
Sat 04:15:00 PM 44.0838 -29.7171 248° West  Level FlightAware Approximate
Sat 04:16:00 PM 44.0436 -29.8532 248° West  Level FlightAware Approximate
Sat 04:17:00 PM 44.0033 -29.9891 248° West  Level FlightAware Approximate
Sat 04:18:00 PM 44.0002 -30.1351 270° West  Level FlightAware Approximate
Sat 04:19:00 PM 44.0003 -30.2821 270° West  Level FlightAware Approximate
Sat 04:20:00 PM 44.0002 -30.4291 270° West  Level FlightAware Approximate
Sat 04:21:00 PM 43.9999 -30.5760 270° West  Level FlightAware Approximate
Sat 04:22:00 PM 43.9994 -30.7230 270° West  Level FlightAware Approximate
Sat 04:23:00 PM 43.9987 -30.8700 270° West  Level FlightAware Approximate
Sat 04:24:00 PM 43.9979 -31.0170 270° West  Level FlightAware Approximate
Sat 04:25:00 PM 43.9968 -31.1639 269° West  Level FlightAware Approximate
Sat 04:26:00 PM 43.9956 -31.3109 269° West  Level FlightAware Approximate
Sat 04:27:00 PM 43.9941 -31.4578 269° West  Level FlightAware Approximate
Sat 04:28:00 PM 43.9925 -31.6047 269° West  Level FlightAware Approximate
Sat 04:29:00 PM 43.9907 -31.7517 269° West  Level FlightAware Approximate
Sat 04:30:00 PM 43.9887 -31.8986 269° West  Level FlightAware Approximate
Sat 04:31:00 PM 43.9865 -32.0455 269° West  Level FlightAware Approximate
Sat 04:32:00 PM 43.9842 -32.1924 269° West  Level FlightAware Approximate
Sat 04:33:00 PM 43.9816 -32.3393 269° West  Level FlightAware Approximate
Sat 04:34:00 PM 43.9789 -32.4861 269° West  Level FlightAware Approximate
Sat 04:35:00 PM 43.9759 -32.6330 268° West  Level FlightAware Approximate
Sat 04:36:00 PM 43.9728 -32.7799 268° West  Level FlightAware Approximate
Sat 04:37:00 PM 43.9695 -32.9267 268° West  Level FlightAware Approximate
Sat 04:38:00 PM 43.9660 -33.0735 268° West  Level FlightAware Approximate
Sat 04:39:00 PM 43.9623 -33.2203 268° West  Level FlightAware Approximate
Sat 04:40:00 PM 43.9584 -33.3671 268° West  Level FlightAware Approximate
Sat 04:41:00 PM 43.9544 -33.5138 268° West  Level FlightAware Approximate
Sat 04:42:00 PM 43.9501 -33.6605 268° West  Level FlightAware Approximate
Sat 04:43:00 PM 43.9457 -33.8073 268° West  Level FlightAware Approximate
Sat 04:44:00 PM 43.9411 -33.9539 268° West  Level FlightAware Approximate
Sat 04:44:41 PM 42.0000 -40.0000 266° West 480 552 38,000  Level New York Oceanic (ODAPS)
Sat 04:47:32 PM 41.9667 -40.5000 265° West 480 552 38,000  Level New York Oceanic (ODAPS)
Sat 04:56:50 PM 41.8500 -42.2500 264° West 475 547 38,000  Level New York Oceanic (ODAPS)
Sat 05:06:36 PM 41.7167 -43.9667 263° West 473 544 38,000  Level New York Oceanic (ODAPS)
Sat 05:15:59 PM 41.5500 -45.6500 262° West 472 543 38,000  Level New York Oceanic (ODAPS)
Sat 05:25:37 PM 41.3500 -47.3167 261° West 469 540 38,000  Level New York Oceanic (ODAPS)
Sat 05:35:12 PM 41.1500 -48.9500 260° West 464 534 38,000  Level New York Oceanic (ODAPS)
Sat 05:41:23 PM 41.0000 -50.0000 266° West 456 525 38,000  Level New York Oceanic (ODAPS)
Sat 05:44:50 PM 40.9667 -50.5667 265° West 455 524 38,000  Level New York Oceanic (ODAPS)
Sat 05:54:23 PM 40.8500 -52.1833 264° West 455 524 38,000  Level New York Oceanic (ODAPS)
Sat 06:03:59 PM 40.7333 -53.7833 263° West 453 521 38,000  Level New York Oceanic (ODAPS)
Sat 06:13:37 PM 40.5667 -55.3667 262° West 451 519 38,000 60 Level New York Oceanic (ODAPS)
Sat 06:20:34 PM 40.4500 -56.4833 262° West 442 509 39,000 103 Climbing New York Oceanic (ODAPS)
Sat 06:23:20 PM 40.4000 -56.9500 261° West 434 499 39,000  Level New York Oceanic (ODAPS)
Sat 06:26:15 PM 40.3500 -57.4167 261° West 433 498 39,000  Level New York Oceanic (ODAPS)
Sat 06:29:12 PM 40.2833 -57.8833 261° West 447 514 39,000  Level New York Oceanic (ODAPS)
Sat 06:32:07 PM 40.2333 -58.3333 260° West 441 507 39,000  Level New York Oceanic (ODAPS)
Sat 06:35:03 PM 40.1667 -58.7833 260° West 420 483 39,000  Level New York Oceanic (ODAPS)
Sat 06:38:03 PM 40.1000 -59.2500 260° West 404 465 39,000  Level New York Oceanic (ODAPS)
Sat 06:40:58 PM 40.0500 -59.7000 258° West 414 476 39,000  Level New York Oceanic (ODAPS)
Sat 06:43:53 PM 40.0000 -60.0833 273° West 470 541 39,000  Level New York Oceanic (ODAPS)
Sat 06:44:37 PM 40.0167 -60.2000 273° West 541 623 39,000  Level New York Oceanic (ODAPS)
Sat 06:46:47 PM 40.0167 -60.5500 273° West 516 594 39,000  Level New York Oceanic (ODAPS)
Sat 06:48:05 PM 40.0333 -60.7667 273° West 449 517 39,000  Level New York Oceanic (ODAPS)
Sat 06:49:43 PM 40.0500 -61.0167 273° West 446 513 39,000  Level New York Oceanic (ODAPS)
Sat 06:52:38 PM 40.0667 -61.4667 272° West 449 517 39,000  Level New York Oceanic (ODAPS)
Sat 06:55:47 PM 40.0667 -61.9167 272° West 451 519 39,000  Level New York Oceanic (ODAPS)
Sat 06:58:31 PM 40.0833 -62.3833 272° West 449 517 39,000  Level New York Oceanic (ODAPS)
Sat 07:01:27 PM 40.1000 -62.8500 272° West 446 513 39,000  Level New York Oceanic (ODAPS)
Sat 07:04:22 PM 40.1000 -63.3000 272° West 443 510 39,000  Level New York Oceanic (ODAPS)
Sat 07:07:18 PM 40.1167 -63.7333 271° West 441 507 39,000  Level New York Oceanic (ODAPS)
Sat 07:10:16 PM 40.1167 -64.1833 271° West 438 504 39,000  Level New York Oceanic (ODAPS)
Sat 07:11:59 PM 40.1167 -64.4333 271° West 436 502 39,000  Level New York Oceanic (ODAPS)
Sat 07:12:58 PM 40.1167 -64.5833 271° West 437 503 39,000  Level New York Oceanic (ODAPS)
Sat 07:13:00 PM 40.1263 -64.7133 270° West 441 507 39,000  Level FlightAware Transoceanic
Sat 07:13:16 PM 40.1167 -64.6167 271° West 436 502 39,000  Level New York Oceanic (ODAPS)
Sat 07:16:09 PM 40.1333 -65.0500 270° West 432 497 39,000 -104 Level New York Oceanic (ODAPS)
Sat 07:19:03 PM 40.1333 -65.4667 270° West 426 490 38,400 -140 Descending New York Oceanic (ODAPS)
Sat 07:23:18 PM 40.1333 -65.9000 269° West 426 490 38,000 -68 Descending New York Oceanic (ODAPS)
Sat 07:24:57 PM 40.1167 -66.3333 270° West 432 497 38,000 235 Level New York Oceanic (ODAPS)
Sat 07:25:00 PM 40.1258 -66.3868 269° West 426 490 38,400 381 Climbing FlightAware Transoceanic
Sat 07:26:00 PM 40.1238 -66.5401 269° West 426 490 38,400 -267 Level FlightAware Transoceanic
Sat 07:26:30 PM 40.1389 -66.5903 270° West 467 537 38,000  Descending New York Center
Sat 07:27:00 PM 40.1216 -66.6934 269° West 426 490 38,400  Climbing FlightAware Transoceanic
Sat 07:27:32 PM 40.1356 -66.7400 268° West 444 511 38,000  Descending New York Center
Sat 07:28:00 PM 40.1192 -66.8467 269° West 426 490 38,400  Climbing FlightAware Transoceanic
Sat 07:28:32 PM 40.1372 -66.9136 271° West 438 504 38,000 -400 Descending New York Center
Sat 07:29:00 PM 40.1167 -67.0000 316° Northwest 426 490 38,000  Level FlightAware Transoceanic
Sat 07:29:31 PM 40.1856 -67.0603 293° West 428 493 38,000  Level New York Center
Sat 07:30:00 PM 40.2026 -67.1092 316° Northwest 426 490 38,000 -590 Level FlightAware Transoceanic
Sat 07:30:32 PM 40.2744 -67.1781 315° West 422 486 37,400 -659 Descending New York Center
Sat 07:31:31 PM 40.3694 -67.2906 318° Northwest 444 511 37,000 -202 Descending New York Center
Sat 07:32:31 PM 40.4622 -67.4033 317° Northwest 449 517 37,000  Level New York Center
Sat 07:33:33 PM 40.5572 -67.5189 317° Northwest 454 522 37,000  Level New York Center
Sat 07:34:30 PM 40.6519 -67.6347 317° Northwest 454 522 37,000  Level New York Center
Sat 07:35:32 PM 40.7403 -67.7514 315° West 454 522 37,000  Level New York Center
Sat 07:36:32 PM 40.8325 -67.8653 317° Northwest 459 528 37,000 -60 Level New York Center
Sat 07:42:11 PM 41.3086 -68.4717 316° Northwest 455 524 36,600 -398 Descending FlightAware ADS-B (EGHI / SOU)
Sat 07:44:49 PM 41.5954 -68.8451 315° West 458 527 33,700 -1,093 Descending FlightAware ADS-B (EGHI / SOU)
Sat 07:46:07 PM 41.7134 -69.0001 315° West 465 535 32,300 -1,059 Descending FlightAware ADS-B (EGHI / SOU)
Sat 07:47:22 PM 41.8287 -69.1524 315° West 471 542 31,000 -1,510 Descending FlightAware ADS-B
Sat 07:48:30 PM 41.9328 -69.2908 315° West 470 541 28,700 -2,143 Descending FlightAware ADS-B
Sat 07:49:00 PM 41.9802 -69.3541 315° West 460 529 27,500 -2,262 Descending FlightAware ADS-B
Sat 07:49:31 PM 42.0250 -69.4139 315° West 449 517 26,400 -2,129 Descending FlightAware ADS-B
Sat 07:50:02 PM 42.0630 -69.4648 315° West 438 504 25,300 -2,091 Descending FlightAware ADS-B
Sat 07:50:37 PM 42.1190 -69.5399 315° West 424 488 24,100 -2,720 Descending FlightAware ADS-B
Sat 07:51:17 PM 42.1713 -69.6104 315° West 424 488 21,900 -2,720 Descending FlightAware ADS-B
Sat 07:51:52 PM 42.2236 -69.6807 315° West 415 478 20,700 -2,188 Descending FlightAware ADS-B
Sat 07:52:42 PM 42.2915 -69.7725 315° West 409 471 18,800 -2,157 Descending FlightAware ADS-B
Sat 07:53:21 PM 42.3425 -69.8416 315° West 402 463 17,500 -1,944 Descending FlightAware ADS-B
Sat 07:53:53 PM 42.3847 -69.8989 315° West 393 452 16,500 -1,917 Descending FlightAware ADS-B
Sat 07:54:33 PM 42.4340 -69.9662 315° West 385 443 15,200 -1,926 Descending FlightAware ADS-B (KASH)
Sat 07:55:14 PM 42.4709 -70.0451 286° West 374 430 13,900 -1,880 Descending FlightAware ADS-B
Sat 07:55:56 PM 42.4904 -70.1427 285° West 368 423 12,600 -1,770 Descending FlightAware ADS-B
Sat 07:56:15 PM 42.4989 -70.1842 285° West 365 420 12,100 -1,400 Descending FlightAware ADS-B
Sat 07:56:26 PM 42.5033 -70.2058 286° West 352 405 11,900 -1,000 Descending FlightAware ADS-B
Sat 07:56:57 PM 42.5164 -70.2680 286° West 315 362 11,400 -984 Descending FlightAware ADS-B
Sat 07:57:27 PM 42.5283 -70.3231 286° West 289 333 10,900 -1,475 Descending FlightAware ADS-B
Sat 07:57:58 PM 42.5394 -70.3755 286° West 285 328 9,900 -1,765 Descending FlightAware ADS-B
Sat 07:58:18 PM 42.5469 -70.4114 286° West 283 326 9,400 -1,286 Descending FlightAware ADS-B
Sat 07:58:54 PM 42.5592 -70.4714 285° West 283 326 8,700 -1,200 Descending FlightAware ADS-B
Sat 07:59:13 PM 42.5654 -70.5037 284° West 281 323 8,300 -1,077 Descending FlightAware ADS-B
Sat 07:59:33 PM 42.5716 -70.5380 284° West 278 320 8,000 -1,317 Descending FlightAware ADS-B
Sat 07:59:54 PM 42.5780 -70.5744 283° West 268 308 7,400 -1,902 Descending FlightAware ADS-B
Sat 08:00:14 PM 42.5830 -70.6037 283° West 264 304 6,700 -2,400 Descending FlightAware ADS-B
Sat 08:00:34 PM 42.5891 -70.6378 284° West 264 304 5,800 -2,500 Descending FlightAware ADS-B
Sat 08:00:50 PM 42.5939 -70.6634 285° West 264 304 5,200 -1,935 Descending FlightAware ADS-B (KASH)
Sat 08:01:05 PM 42.5990 -70.6884 285° West 261 300 4,800 -1,400 Descending FlightAware ADS-B
Sat 08:01:20 PM 42.6035 -70.7102 284° West 254 292 4,500 -1,200 Descending FlightAware ADS-B (KASH)
Sat 08:01:35 PM 42.6082 -70.7318 287° West 252 290 4,200 -1,000 Descending FlightAware ADS-B
Sat 08:01:56 PM 42.6156 -70.7646 287° West 241 277 3,900 -439 Descending FlightAware ADS-B
Sat 08:02:16 PM 42.6219 -70.7924 287° West 224 258 3,900 -150 Level FlightAware ADS-B
Sat 08:02:36 PM 42.6278 -70.8176 287° West 221 254 3,800 -146 Descending FlightAware ADS-B
Sat 08:02:57 PM 42.6332 -70.8460 276° West 219 252 3,800  Level FlightAware ADS-B
Sat 08:03:07 PM 42.6308 -70.8593 243° Southwest 216 249 3,800 300 Level FlightAware ADS-B
Sat 08:03:17 PM 42.6239 -70.8699 222° Southwest 218 251 3,900 207 Climbing FlightAware ADS-B
Sat 08:03:36 PM 42.6079 -70.8852 211° Southwest 219 252 3,900  Level FlightAware ADS-B
Sat 08:03:59 PM 42.5876 -70.8964 199° South 220 253 3,900 -143 Level FlightAware ADS-B
Sat 08:04:18 PM 42.5686 -70.9063 201° Southwest 217 250 3,800 -750 Descending FlightAware ADS-B
Sat 08:04:39 PM 42.5484 -70.9166 200° South 217 250 3,400 -1,333 Descending FlightAware ADS-B
Sat 08:05:03 PM 42.5271 -70.9274 200° South 205 236 2,800 -1,333 Descending FlightAware ADS-B
Sat 08:05:24 PM 42.5094 -70.9364 201° Southwest 179 206 2,400 -960 Descending FlightAware ADS-B
Sat 08:05:28 PM 42.5056 -70.9383 201° Southwest 172 198 2,400 -316 Level FlightAware ADS-B (KASH)
Sat 08:05:43 PM 42.4965 -70.9426 199° South 151 174 2,300 -600 Descending FlightAware ADS-B
Sat 08:06:08 PM 42.4806 -70.9496 198° South 148 170 2,000 -783 Descending FlightAware ADS-B
Sat 08:06:29 PM 42.4678 -70.9554 199° South 137 158 1,700 -732 Descending FlightAware ADS-B
Sat 08:06:49 PM 42.4554 -70.9617 201° Southwest 135 155 1,500 -750 Descending FlightAware ADS-B
Sat 08:07:09 PM 42.4430 -70.9676 199° South 137 158 1,200 -750 Descending FlightAware ADS-B
Sat 08:07:29 PM 42.4315 -70.9731 200° South 135 155 1,000 -615 Descending FlightAware ADS-B
Sat 08:07:48 PM 42.4202 -70.9784 199° South 134 154 800 -600 Descending FlightAware ADS-B
Sat 08:08:09 PM 42.4079 -70.9845 200° South 135 155 600 -714 Descending FlightAware ADS-B
Sat 08:08:30 PM 42.3956 -70.9903 200° South 134 154 300 -319 Descending FlightAware ADS-B
Sat 08:09:43 PM 42.3575 -71.0081 200° South 136 157 100 -164 Descending Boston Center
Sat 08:11:00 PM 42.3500 -71.0000 246° West  Level FlightAware Approximate

Login

Don't have an account? Register now (free) for customized features, flight alerts, and more!